AIRPORT_AIRPORT_METAR
METAR FOR GVBA
ADDS - METARS form results

(0011 UTC 06 December 2019)
Data provider http://aviationweather.gov/metar/data/
 
Forecast for: GVBA (RABIL AIRPORT , CV)
Text: TAF GVBA 052300Z 0600/0706 03016KT 9999 BKN015
Forecast period: 0000 UTC 06 December 2019 to 0600 UTC 07 December 2019
Forecast type: FROM: standard forecast or significant change
Winds: from the NNE (30 degrees) at 18 MPH (16 knots; 8.2 m/s)
Visibility: 6 or more miles 10+ km)
Ceiling: 1500 feet AGL
Clouds: broken clouds at 1500 feet AGL
Weather: no significant weather forecast for this period
Text: PROB30
Forecast period: 1000 to 1800 UTC 06 December 2019
Forecast type: TEMPORARY: The following changes expected for less than half the time period
Visibility: missing
Ceiling: 1200 feet AGL
Clouds: broken clouds at 1200 feet AGL
Weather: DZ  (moderate drizzle)

 AIRPORT_AIRPORT_MAP

 AIRPORT_RUNWAY_INFO
AIRPORT_RUNWAY 03 AIRPORT_RUNWAY_LENGTH 4007 ft AIRPORT_RUNWAY_WIDTH 98 ft
AIRPORT_RUNWAY_ELEVATION 69 ft AIRPORT_RUNWAY_THRESHOLD 0 ft AIRPORT_RUNWAY_HEADING 16
AIRPORT_RUNWAY 21 AIRPORT_RUNWAY_LENGTH 4007 ft AIRPORT_RUNWAY_WIDTH 98 ft
AIRPORT_RUNWAY_ELEVATION 69 ft AIRPORT_RUNWAY_THRESHOLD 0 ft AIRPORT_RUNWAY_HEADING 196

 AIRPORT_AIRPORT_FREQUENCIES

 AIRPORT_AIRPORT_NAVAIDS
AIRPORT_AIRPORT_NAVAIDS_TYPE NDB AIRPORT_AIRPORT_NAVAIDS_NAME Rabil AIRPORT_AIRPORT_NAVAIDS_FREQ 341 KHZ



Copyright © 2005-2019 - Virtuel Air Alsace - Tous droits réservés